BIRK

Reykjavik Airport

Reykjavik, Iceland
METAR BIRK 240300Z 15013KT 9999 -RA FEW024 BKN033 OVC043 07/04 Q1014
Observed Flight Rules
Sep-24 @ 03:00 UTC (46 minutes ago) Visual Flight Rules
Wind Visibility Clouds Conditions
150° at 13 knots 10,000+ meters
  • Few at 2,400' AGL
  • Broken at 3,300' AGL
  • Overcast at 4,300' AGL
  • Light Rain
Temperatures Readings
Current 7°C / 45°F
Dewpoint 4°C / 39°F
Humidity 81%
Altimeter 29.94" Hg
Pressure 1014 hPa
Elevation 61
METAR BIRK 240300Z 15013KT 9999 -RA FEW024 BKN033 OVC043 07/04 Q1014
Observed Flight Rules
Sep-24 @ 03:00 UTC
(46 minutes ago)
VFR
Wind Visibility
150° at 13 knots 10,000+ meters
Clouds
  • Few at 2,400' AGL
  • Broken at 3,300' AGL
  • Overcast at 4,300' AGL
Conditions
  • Light Rain
Temperature Dewpoint
7°C / 45°F 4°C / 39°F
Humidity Altimeter Pressure
81% 29.94" Hg 1014 hPa